createdAt,value
2019-04-16T00:00:59.717Z,10.80
2019-04-16T00:03:27.193Z,10.70
2019-04-16T00:05:58.479Z,11.10
2019-04-16T00:08:27.960Z,10.70
2019-04-16T00:10:54.420Z,10.70
2019-04-16T00:13:23.021Z,10.70
2019-04-16T00:15:51.426Z,10.60
2019-04-16T00:18:19.875Z,10.60
2019-04-16T00:20:49.384Z,10.60
2019-04-16T00:23:17.304Z,10.60
2019-04-16T00:25:45.357Z,10.50
2019-04-16T00:28:13.606Z,10.50
2019-04-16T00:30:42.255Z,10.30
2019-04-16T00:33:10.676Z,10.30
2019-04-16T00:35:38.049Z,10.40
2019-04-16T00:38:05.600Z,10.30
2019-04-16T00:40:33.213Z,10.30
2019-04-16T00:43:01.659Z,10.40
2019-04-16T00:47:58.056Z,10.40
2019-04-16T00:50:26.300Z,10.30
2019-04-16T00:52:53.851Z,10.30
2019-04-16T00:55:21.429Z,10.20
2019-04-16T00:57:49.297Z,10.20
2019-04-16T01:00:17.261Z,10.10
2019-04-16T01:02:46.953Z,10.10
2019-04-16T01:05:12.286Z,10.10
2019-04-16T01:07:39.800Z,10.10
2019-04-16T01:10:07.780Z,10.00
2019-04-16T01:12:35.249Z,9.90
2019-04-16T01:15:03.766Z,10.00
2019-04-16T01:17:33.503Z,9.80
2019-04-16T01:19:59.131Z,9.90
2019-04-16T01:22:27.381Z,9.80
2019-04-16T01:24:54.859Z,9.80
2019-04-16T01:27:22.519Z,10.00
2019-04-16T01:29:50.001Z,9.80
2019-04-16T01:32:23.255Z,9.90
2019-04-16T01:34:56.755Z,10.00
2019-04-16T01:37:25.778Z,10.00
2019-04-16T01:39:56.605Z,9.80
2019-04-16T01:42:24.298Z,9.80
2019-04-16T01:44:52.666Z,10.10
2019-04-16T01:47:20.330Z,10.10
2019-04-16T01:49:47.794Z,9.80
2019-04-16T01:52:18.680Z,9.90
2019-04-16T01:54:42.862Z,10.00
2019-04-16T01:57:10.385Z,9.80
2019-04-16T01:59:37.867Z,10.00
2019-04-16T02:02:06.102Z,9.90
2019-04-16T02:04:33.688Z,10.00
2019-04-16T02:07:01.307Z,9.90
2019-04-16T02:09:34.231Z,9.90
2019-04-16T02:11:57.434Z,9.50
2019-04-16T02:14:26.111Z,9.70
2019-04-16T02:16:55.969Z,9.60
2019-04-16T02:19:21.886Z,9.60
2019-04-16T02:21:49.377Z,9.50
2019-04-16T02:24:18.807Z,9.60
2019-04-16T02:26:48.018Z,9.50
2019-04-16T02:29:16.263Z,9.60
2019-04-16T02:31:47.797Z,9.60
2019-04-16T02:34:12.319Z,9.50
2019-04-16T02:36:39.713Z,9.50
2019-04-16T02:39:07.270Z,9.60
2019-04-16T02:41:34.758Z,9.50
2019-04-16T02:44:03.917Z,9.40
2019-04-16T02:46:32.729Z,9.40
2019-04-16T02:48:58.992Z,9.30
2019-04-16T02:54:02.260Z,9.10
2019-04-16T02:56:35.776Z,9.40
2019-04-16T02:59:09.934Z,9.30
2019-04-16T03:01:32.955Z,9.30
2019-04-16T03:04:06.815Z,9.10
2019-04-16T03:06:34.293Z,9.10
2019-04-16T03:09:05.193Z,9.20
2019-04-16T03:11:31.238Z,9.20
2019-04-16T03:13:59.487Z,9.20
2019-04-16T03:16:39.867Z,9.00
2019-04-16T03:19:08.118Z,9.00
2019-04-16T03:21:36.572Z,9.00
2019-04-16T03:24:08.053Z,9.00
2019-04-16T03:26:32.308Z,8.90
2019-04-16T03:28:59.877Z,8.90
2019-04-16T03:31:27.678Z,8.90
2019-04-16T03:33:55.917Z,8.80
2019-04-16T03:36:26.418Z,8.90
2019-04-16T03:38:51.867Z,9.00
2019-04-16T03:41:19.337Z,9.00
2019-04-16T03:43:46.904Z,9.00
2019-04-16T03:46:14.674Z,8.80
2019-04-16T03:48:42.337Z,8.80
2019-04-16T03:51:10.014Z,9.00
2019-04-16T03:56:11.380Z,9.00
2019-04-16T03:58:39.636Z,8.90
2019-04-16T04:01:07.131Z,8.90
2019-04-16T04:03:34.679Z,9.00
2019-04-16T04:06:03.552Z,8.60
2019-04-16T04:08:29.945Z,8.70
2019-04-16T04:10:57.850Z,8.50
2019-04-16T04:13:26.093Z,8.40
2019-04-16T04:15:55.220Z,8.30
2019-04-16T04:18:22.224Z,8.40
2019-04-16T04:20:50.814Z,8.40
2019-04-16T04:25:46.063Z,8.00
2019-04-16T04:28:18.492Z,8.50
2019-04-16T04:30:42.002Z,8.40
2019-04-16T04:33:10.444Z,8.60
2019-04-16T04:35:37.934Z,8.60
2019-04-16T04:38:06.169Z,8.50
2019-04-16T04:40:44.217Z,8.50
2019-04-16T04:43:01.758Z,8.50
2019-04-16T04:45:28.705Z,8.60
2019-04-16T04:47:56.179Z,8.50
2019-04-16T04:50:24.552Z,8.40
2019-04-16T04:55:41.876Z,8.80
2019-04-16T04:58:09.368Z,8.80
2019-04-16T05:00:40.514Z,8.40
2019-04-16T05:03:05.109Z,8.50
2019-04-16T05:05:33.569Z,8.50
2019-04-16T05:08:01.151Z,8.50
2019-04-16T05:10:29.383Z,8.50
2019-04-16T05:12:56.857Z,8.50
2019-04-16T05:15:26.462Z,8.20
2019-04-16T05:17:52.200Z,8.30
2019-04-16T05:20:19.863Z,8.10
2019-04-16T05:22:47.441Z,8.30
2019-04-16T05:25:15.105Z,8.40
2019-04-16T05:27:42.674Z,8.40
2019-04-16T05:30:10.391Z,8.60
2019-04-16T05:32:37.997Z,8.50
2019-04-16T05:35:10.295Z,8.30
2019-04-16T05:37:35.173Z,8.30
2019-04-16T05:40:02.929Z,8.20
2019-04-16T05:42:30.515Z,8.30
2019-04-16T05:44:58.141Z,8.40
2019-04-16T05:47:25.847Z,8.30
2019-04-16T05:49:54.474Z,8.20
2019-04-16T05:52:21.793Z,8.60
2019-04-16T05:54:53.248Z,8.50
2019-04-16T05:57:25.671Z,8.50
2019-04-16T05:59:48.217Z,8.60
2019-04-16T06:02:18.729Z,8.50
2019-04-16T06:04:45.229Z,8.40
2019-04-16T06:07:12.906Z,8.60
2019-04-16T06:09:41.412Z,8.60
2019-04-16T06:12:08.917Z,8.70
2019-04-16T06:14:37.974Z,8.60
2019-04-16T06:17:21.261Z,9.00
2019-04-16T06:19:54.778Z,9.00
2019-04-16T06:25:25.949Z,9.80
2019-04-16T06:28:03.904Z,9.80
2019-04-16T06:30:37.210Z,10.10
2019-04-16T06:33:08.124Z,9.90
2019-04-16T06:35:43.240Z,9.90
2019-04-16T06:38:09.475Z,9.90
2019-04-16T06:40:39.940Z,9.90
2019-04-16T06:43:10.895Z,9.80
2019-04-16T06:45:56.217Z,9.80
2019-04-16T06:51:24.523Z,9.90
2019-04-16T06:53:57.486Z,9.90
2019-04-16T06:56:44.753Z,9.80
2019-04-16T06:59:12.688Z,9.80
2019-04-16T07:01:42.067Z,10.00
2019-04-16T07:04:08.674Z,10.10
2019-04-16T07:06:39.848Z,10.20
2019-04-16T07:09:12.714Z,10.20
2019-04-16T07:11:53.468Z,10.30
2019-04-16T07:14:08.695Z,10.30
2019-04-16T07:16:36.149Z,10.30
2019-04-16T07:19:04.502Z,10.30
2019-04-16T07:21:32.259Z,10.30
2019-04-16T07:23:59.775Z,10.20
2019-04-16T07:26:27.284Z,10.20
2019-04-16T07:29:04.653Z,10.30
2019-04-16T07:31:34.923Z,10.40
2019-04-16T07:37:00.957Z,10.60
2019-04-16T07:39:29.916Z,10.60
2019-04-16T07:42:09.799Z,10.70
2019-04-16T07:44:32.191Z,10.90
2019-04-16T07:47:20.037Z,11.00
2019-04-16T07:50:01.959Z,11.00
2019-04-16T07:52:35.247Z,10.90
2019-04-16T07:55:03.798Z,11.00
2019-04-16T07:57:31.095Z,10.70
2019-04-16T07:59:58.753Z,10.60
2019-04-16T08:02:26.333Z,11.00
2019-04-16T08:04:54.585Z,11.40
2019-04-16T08:07:22.155Z,11.40
2019-04-16T08:09:49.650Z,11.50
2019-04-16T08:12:30.123Z,11.60
2019-04-16T08:14:46.283Z,11.70
2019-04-16T08:17:13.802Z,11.70
2019-04-16T08:19:41.281Z,11.80
2019-04-16T08:22:08.923Z,11.80
2019-04-16T08:24:37.193Z,11.70
2019-04-16T08:27:04.777Z,11.70
2019-04-16T08:29:32.276Z,11.70
2019-04-16T08:32:00.543Z,11.80
2019-04-16T08:34:28.056Z,11.80
2019-04-16T08:36:56.809Z,11.90
2019-04-16T08:39:24.472Z,11.90
2019-04-16T08:41:53.029Z,11.90
2019-04-16T08:44:19.605Z,12.20
2019-04-16T08:46:47.078Z,12.30
2019-04-16T08:49:15.323Z,12.40
2019-04-16T08:51:42.069Z,12.40
2019-04-16T08:54:09.541Z,12.30
2019-04-16T08:56:37.731Z,12.50
2019-04-16T08:59:09.482Z,12.50
2019-04-16T09:01:32.719Z,12.90
2019-04-16T09:04:02.457Z,13.00
2019-04-16T09:06:28.499Z,13.20
2019-04-16T09:11:51.431Z,12.70
2019-04-16T09:14:20.865Z,12.90
2019-04-16T09:16:47.721Z,13.20
2019-04-16T09:19:15.210Z,13.20
2019-04-16T09:21:44.451Z,13.40
2019-04-16T09:24:16.682Z,13.40
2019-04-16T09:29:41.882Z,13.90
2019-04-16T09:32:15.887Z,13.70
2019-04-16T09:35:10.150Z,14.00
2019-04-16T09:37:35.663Z,14.10
2019-04-16T09:42:58.948Z,13.80
2019-04-16T09:45:26.423Z,14.10
2019-04-16T09:47:54.794Z,14.00
2019-04-16T09:50:22.641Z,13.90
2019-04-16T09:52:52.445Z,14.50
2019-04-16T09:55:19.671Z,14.60
2019-04-16T09:57:47.706Z,14.60
2019-04-16T10:00:21.328Z,14.60
2019-04-16T10:02:49.276Z,14.60
2019-04-16T10:05:16.950Z,14.60
2019-04-16T10:07:44.323Z,14.80
2019-04-16T10:10:11.862Z,14.60
2019-04-16T10:12:40.097Z,14.60
2019-04-16T10:15:08.227Z,14.80
2019-04-16T10:17:35.796Z,14.90
2019-04-16T10:20:04.494Z,15.10
2019-04-16T10:22:31.972Z,15.10
2019-04-16T10:25:03.832Z,15.20
2019-04-16T10:27:33.015Z,15.20
2019-04-16T10:30:01.267Z,14.40
2019-04-16T10:32:28.740Z,14.40
2019-04-16T10:34:56.257Z,14.60
2019-04-16T10:37:24.491Z,14.80
2019-04-16T10:39:59.102Z,14.80
2019-04-16T10:45:20.753Z,15.00
2019-04-16T10:47:55.030Z,14.90
2019-04-16T10:50:34.343Z,14.90
2019-04-16T10:53:02.351Z,14.60
2019-04-16T10:55:35.523Z,14.90
2019-04-16T10:58:07.535Z,15.30
2019-04-16T11:03:34.778Z,15.50
2019-04-16T11:06:10.760Z,15.60
2019-04-16T11:08:38.423Z,15.50
2019-04-16T11:11:06.702Z,15.70
2019-04-16T11:13:34.184Z,15.70
2019-04-16T11:16:03.346Z,16.10
2019-04-16T11:18:30.803Z,16.10
2019-04-16T11:20:58.387Z,16.00
2019-04-16T11:23:26.648Z,15.40
2019-04-16T11:25:54.340Z,15.40
2019-04-16T11:28:22.029Z,15.40
2019-04-16T11:30:50.292Z,15.60
2019-04-16T11:33:17.812Z,15.50
2019-04-16T11:35:45.305Z,15.70
2019-04-16T11:38:12.871Z,15.70
2019-04-16T11:40:41.199Z,15.60
2019-04-16T11:43:08.046Z,15.60
2019-04-16T11:45:36.301Z,15.90
2019-04-16T11:48:04.581Z,16.10
2019-04-16T11:50:35.817Z,16.10
2019-04-16T11:53:00.557Z,16.00
2019-04-16T11:55:28.987Z,16.00
2019-04-16T11:57:56.670Z,16.00
2019-04-16T12:03:17.104Z,16.20
2019-04-16T12:05:47.658Z,16.20
2019-04-16T12:08:18.552Z,16.40
2019-04-16T12:10:52.137Z,16.50
2019-04-16T12:13:20.528Z,16.80
2019-04-16T12:15:48.913Z,16.80
2019-04-16T12:18:19.114Z,17.10
2019-04-16T12:20:46.721Z,17.10
2019-04-16T12:23:32.652Z,16.90
2019-04-16T12:26:08.840Z,16.90
2019-04-16T12:28:34.300Z,17.10
2019-04-16T12:31:07.618Z,16.80
2019-04-16T12:33:36.970Z,16.70
2019-04-16T12:36:12.828Z,16.60
2019-04-16T12:38:38.782Z,16.70
2019-04-16T12:41:13.095Z,16.80
2019-04-16T12:43:42.135Z,16.80
2019-04-16T12:46:13.637Z,16.80
2019-04-16T12:48:47.510Z,17.00
2019-04-16T12:51:18.164Z,17.00
2019-04-16T12:53:54.235Z,17.10
2019-04-16T12:56:26.943Z,17.10
2019-04-16T12:58:57.107Z,17.40
2019-04-16T13:04:25.665Z,17.30
2019-04-16T13:06:57.184Z,17.30
2019-04-16T13:09:26.266Z,17.30
2019-04-16T13:11:56.581Z,17.30
2019-04-16T13:14:39.070Z,17.50
2019-04-16T13:17:08.137Z,17.80
2019-04-16T13:19:38.799Z,17.60
2019-04-16T13:22:06.493Z,17.60
2019-04-16T13:24:36.915Z,17.60
2019-04-16T13:27:07.361Z,17.60
2019-04-16T13:29:35.990Z,17.90
2019-04-16T13:32:03.490Z,17.80
2019-04-16T13:34:32.709Z,18.00
2019-04-16T13:37:00.749Z,17.90
2019-04-16T13:39:33.747Z,17.90
2019-04-16T13:42:01.469Z,18.00
2019-04-16T13:44:29.294Z,18.10
2019-04-16T13:47:01.340Z,18.20
2019-04-16T13:49:25.499Z,18.00
2019-04-16T13:51:52.979Z,17.80
2019-04-16T13:56:52.943Z,17.90
2019-04-16T14:02:24.765Z,18.20
2019-04-16T14:04:52.486Z,18.10
2019-04-16T14:07:19.967Z,18.00
2019-04-16T14:09:47.556Z,18.30
2019-04-16T14:12:15.819Z,18.10
2019-04-16T14:14:43.367Z,18.00
2019-04-16T14:17:11.481Z,17.90
2019-04-16T14:19:38.773Z,18.10
2019-04-16T14:22:06.042Z,18.00
2019-04-16T14:24:33.512Z,18.10
2019-04-16T14:27:02.010Z,18.30
2019-04-16T14:29:29.491Z,18.10
2019-04-16T14:31:57.047Z,18.20
2019-04-16T14:37:20.502Z,18.30
2019-04-16T14:39:53.857Z,18.30
2019-04-16T14:42:23.152Z,18.50
2019-04-16T14:44:50.602Z,18.40
2019-04-16T14:47:18.893Z,18.50
2019-04-16T14:49:47.848Z,18.50
2019-04-16T14:52:14.707Z,18.30
2019-04-16T14:54:46.478Z,18.30
2019-04-16T14:57:13.981Z,18.30
2019-04-16T14:59:44.137Z,18.40
2019-04-16T15:02:11.652Z,18.10
2019-04-16T15:07:44.116Z,18.40
2019-04-16T15:10:15.739Z,18.30
2019-04-16T15:12:43.220Z,18.20
2019-04-16T15:15:14.109Z,18.60
2019-04-16T15:17:47.110Z,18.60
2019-04-16T15:20:29.461Z,18.50
2019-04-16T15:23:17.801Z,18.80
2019-04-16T15:25:51.687Z,18.60
2019-04-16T15:28:19.174Z,18.60
2019-04-16T15:30:46.958Z,18.80
2019-04-16T15:33:15.433Z,18.70
2019-04-16T15:35:46.820Z,18.60
2019-04-16T15:38:14.784Z,18.40
2019-04-16T15:40:42.257Z,18.40
2019-04-16T15:43:19.162Z,18.80
2019-04-16T15:45:48.730Z,18.70
2019-04-16T15:48:18.068Z,18.40
2019-04-16T15:50:44.820Z,18.40
2019-04-16T15:53:13.324Z,18.60
2019-04-16T15:55:41.038Z,18.40
2019-04-16T15:58:11.917Z,18.50
2019-04-16T16:00:40.946Z,18.70
2019-04-16T16:03:14.263Z,18.60
2019-04-16T16:05:42.312Z,18.30
2019-04-16T16:08:13.318Z,18.50
2019-04-16T16:10:45.378Z,18.50
2019-04-16T16:13:11.388Z,18.60
2019-04-16T16:15:40.590Z,18.50
2019-04-16T16:18:07.258Z,18.50
2019-04-16T16:20:34.828Z,18.50
2019-04-16T16:23:02.457Z,18.40
2019-04-16T16:25:29.963Z,18.40
2019-04-16T16:27:57.577Z,18.60
2019-04-16T16:30:25.293Z,18.70
2019-04-16T16:32:52.811Z,18.50
2019-04-16T16:35:20.522Z,18.50
2019-04-16T16:37:48.800Z,18.10
2019-04-16T16:40:16.749Z,18.10
2019-04-16T16:42:44.258Z,18.10
2019-04-16T16:45:12.655Z,17.90
2019-04-16T16:47:40.912Z,18.20
2019-04-16T16:50:10.317Z,18.20
2019-04-16T16:52:37.025Z,18.10
2019-04-16T16:55:04.567Z,18.10
2019-04-16T16:57:32.956Z,18.10
2019-04-16T17:00:12.345Z,18.30
2019-04-16T17:02:45.655Z,18.00
2019-04-16T17:05:13.901Z,18.00
2019-04-16T17:07:41.379Z,18.00
2019-04-16T17:10:09.758Z,18.80
2019-04-16T17:12:38.014Z,18.40
2019-04-16T17:15:08.656Z,18.40
2019-04-16T17:17:33.774Z,18.00
2019-04-16T17:20:02.175Z,18.00
2019-04-16T17:22:29.669Z,17.90
2019-04-16T17:24:57.209Z,17.80
2019-04-16T17:27:29.542Z,18.20
2019-04-16T17:29:57.240Z,18.20
2019-04-16T17:32:24.900Z,18.40
2019-04-16T17:34:52.558Z,18.40
2019-04-16T17:37:21.332Z,18.20
2019-04-16T17:39:51.900Z,18.00
2019-04-16T17:42:20.945Z,17.90
2019-04-16T17:44:55.197Z,17.90
2019-04-16T17:47:31.926Z,18.10
2019-04-16T17:49:52.857Z,18.60
2019-04-16T17:52:22.586Z,18.60
2019-04-16T17:55:00.201Z,18.40
2019-04-16T17:57:31.117Z,18.40
2019-04-16T18:00:00.785Z,18.40
2019-04-16T18:02:33.011Z,18.40
2019-04-16T18:05:15.461Z,18.40
2019-04-16T18:07:48.217Z,18.60
2019-04-16T18:10:22.570Z,18.30
2019-04-16T18:12:56.461Z,18.60
2019-04-16T18:15:25.276Z,18.50
2019-04-16T18:18:01.466Z,18.40
2019-04-16T18:23:20.343Z,17.20
2019-04-16T18:28:34.633Z,17.00
2019-04-16T18:31:07.762Z,16.80
2019-04-16T18:33:37.900Z,17.10
2019-04-16T18:36:06.449Z,17.00
2019-04-16T18:38:35.572Z,16.40
2019-04-16T18:41:10.205Z,16.20
2019-04-16T18:43:43.689Z,16.20
2019-04-16T18:46:15.318Z,16.20
2019-04-16T18:48:44.590Z,16.20
2019-04-16T18:51:09.530Z,16.40
2019-04-16T18:53:40.271Z,16.70
2019-04-16T18:56:06.255Z,16.50
2019-04-16T18:58:33.959Z,16.50
2019-04-16T19:01:01.509Z,16.30
2019-04-16T19:03:29.010Z,16.30
2019-04-16T19:05:56.739Z,16.00
2019-04-16T19:08:24.333Z,16.30
2019-04-16T19:10:52.874Z,16.20
2019-04-16T19:13:20.302Z,16.20
2019-04-16T19:15:48.439Z,16.00
2019-04-16T19:18:19.538Z,16.10
2019-04-16T19:20:44.374Z,16.10
2019-04-16T19:23:12.042Z,16.10
2019-04-16T19:25:39.706Z,16.30
2019-04-16T19:28:08.141Z,16.10
2019-04-16T19:30:35.869Z,16.20
2019-04-16T19:33:04.767Z,15.90
2019-04-16T19:35:32.936Z,16.10
2019-04-16T19:38:02.280Z,16.10
2019-04-16T19:40:28.030Z,16.40
2019-04-16T19:42:57.791Z,16.00
2019-04-16T19:45:23.915Z,15.80
2019-04-16T19:47:52.763Z,15.90
2019-04-16T19:50:19.766Z,15.90
2019-04-16T19:52:48.171Z,16.20
2019-04-16T19:55:15.787Z,16.20
2019-04-16T19:57:43.451Z,16.10
2019-04-16T20:00:11.090Z,16.30
2019-04-16T20:02:39.011Z,16.30
2019-04-16T20:05:06.735Z,16.20
2019-04-16T20:07:35.019Z,15.90
2019-04-16T20:10:02.867Z,15.90
2019-04-16T20:12:30.593Z,15.60
2019-04-16T20:14:58.189Z,15.80
2019-04-16T20:17:26.489Z,16.10
2019-04-16T20:19:58.011Z,16.10
2019-04-16T20:22:26.173Z,15.70
2019-04-16T20:24:53.654Z,15.70
2019-04-16T20:27:21.903Z,15.60
2019-04-16T20:29:49.390Z,15.50
2019-04-16T20:32:17.657Z,15.20
2019-04-16T20:34:46.287Z,15.20
2019-04-16T20:37:13.051Z,15.20
2019-04-16T20:39:40.961Z,15.20
2019-04-16T20:42:08.087Z,14.90
2019-04-16T20:44:35.675Z,14.90
2019-04-16T20:47:07.938Z,15.00
2019-04-16T20:49:32.403Z,15.00
2019-04-16T20:52:01.912Z,15.10
2019-04-16T20:54:27.482Z,14.80
2019-04-16T20:56:55.773Z,14.70
2019-04-16T20:59:23.247Z,14.80
2019-04-16T21:01:51.763Z,14.90
2019-04-16T21:04:19.473Z,14.90
2019-04-16T21:06:46.969Z,14.90
2019-04-16T21:09:15.221Z,14.70
2019-04-16T21:11:42.709Z,14.70
2019-04-16T21:14:11.267Z,15.00
2019-04-16T21:16:40.294Z,14.80
2019-04-16T21:19:22.210Z,15.10
2019-04-16T21:21:38.220Z,15.10
2019-04-16T21:24:08.104Z,14.40
2019-04-16T21:26:32.981Z,14.40
2019-04-16T21:31:53.087Z,14.30
2019-04-16T21:34:26.348Z,14.20
2019-04-16T21:36:54.176Z,14.10
2019-04-16T21:42:15.288Z,14.40
2019-04-16T21:44:44.624Z,14.60
2019-04-16T21:47:11.354Z,14.60
2019-04-16T21:49:42.412Z,14.30
2019-04-16T21:52:07.874Z,14.40
2019-04-16T21:54:35.725Z,14.70
2019-04-16T21:57:04.337Z,14.50
2019-04-16T21:59:31.822Z,14.50
2019-04-16T22:01:59.683Z,14.50
2019-04-16T22:04:27.947Z,14.20
2019-04-16T22:06:55.656Z,14.10
2019-04-16T22:09:23.882Z,13.90
2019-04-16T22:11:51.357Z,13.90
2019-04-16T22:14:22.225Z,13.90
2019-04-16T22:16:47.189Z,13.90
2019-04-16T22:19:15.014Z,13.90
2019-04-16T22:21:43.832Z,13.90
2019-04-16T22:24:10.638Z,13.90
2019-04-16T22:26:38.894Z,13.90
2019-04-16T22:29:06.438Z,13.90
2019-04-16T22:31:33.928Z,13.80
2019-04-16T22:34:01.581Z,13.70
2019-04-16T22:36:29.161Z,13.60
2019-04-16T22:38:57.218Z,13.70
2019-04-16T22:41:28.755Z,13.50
2019-04-16T22:44:02.847Z,13.40
2019-04-16T22:46:45.295Z,13.40
2019-04-16T22:49:12.792Z,13.40
2019-04-16T22:51:43.130Z,13.60
2019-04-16T22:54:07.976Z,13.70
2019-04-16T22:56:39.377Z,13.60
2019-04-16T22:59:08.346Z,13.60
2019-04-16T23:01:53.240Z,13.60
2019-04-16T23:04:17.951Z,13.60
2019-04-16T23:06:45.486Z,13.30
2019-04-16T23:09:17.204Z,13.10
2019-04-16T23:11:42.026Z,13.10
2019-04-16T23:14:09.519Z,13.00
2019-04-16T23:16:41.936Z,12.90
2019-04-16T23:19:04.507Z,12.90
2019-04-16T23:21:33.598Z,12.90
2019-04-16T23:24:01.289Z,13.00
2019-04-16T23:26:32.089Z,12.90
2019-04-16T23:28:57.206Z,12.80
2019-04-16T23:31:24.734Z,12.80
2019-04-16T23:33:52.223Z,12.80
2019-04-16T23:36:19.800Z,12.80
2019-04-16T23:38:47.478Z,12.70
2019-04-16T23:41:16.628Z,12.70
2019-04-16T23:43:45.630Z,12.60
2019-04-16T23:46:16.878Z,12.60
2019-04-16T23:48:47.896Z,12.60
2019-04-16T23:51:16.346Z,12.60
2019-04-16T23:53:44.019Z,12.50
2019-04-16T23:56:17.816Z,12.50
2019-04-16T23:58:48.079Z,12.40
